createdAt,value
2022-11-29T00:01:24.659Z,3.77
2022-11-29T00:03:51.789Z,3.40
2022-11-29T00:06:20.733Z,3.70
2022-11-29T00:08:47.449Z,4.00
2022-11-29T00:11:38.533Z,4.53
2022-11-29T00:14:09.246Z,3.73
2022-11-29T00:16:36.349Z,3.70
2022-11-29T00:19:03.502Z,3.93
2022-11-29T00:21:30.090Z,4.73
2022-11-29T00:23:56.558Z,4.17
2022-11-29T00:26:23.498Z,4.80
2022-11-29T00:28:50.166Z,3.70
2022-11-29T00:31:26.004Z,4.20
2022-11-29T00:33:52.888Z,5.30
2022-11-29T00:36:20.098Z,4.50
2022-11-29T00:38:46.749Z,4.10
2022-11-29T00:41:13.439Z,3.80
2022-11-29T00:43:40.399Z,4.77
2022-11-29T00:46:07.484Z,5.07
2022-11-29T00:48:34.518Z,4.80
2022-11-29T00:51:02.049Z,4.13
2022-11-29T00:53:28.738Z,4.60
2022-11-29T00:55:55.861Z,5.37
2022-11-29T00:58:22.567Z,5.50
2022-11-29T01:00:49.301Z,6.00
2022-11-29T01:03:16.501Z,5.87
2022-11-29T01:05:43.129Z,7.57
2022-11-29T01:08:11.048Z,6.83
2022-11-29T01:10:37.835Z,7.07
2022-11-29T01:13:04.391Z,7.67
2022-11-29T01:15:30.928Z,8.57
2022-11-29T01:17:57.466Z,10.10
2022-11-29T01:20:24.053Z,9.47
2022-11-29T01:22:51.161Z,8.73
2022-11-29T01:25:19.523Z,10.20
2022-11-29T01:27:46.353Z,10.23
2022-11-29T01:30:14.344Z,10.53
2022-11-29T01:32:41.089Z,10.10
2022-11-29T01:35:07.974Z,11.20
2022-11-29T01:37:34.565Z,10.80
2022-11-29T01:40:01.111Z,10.73
2022-11-29T01:42:27.641Z,10.27
2022-11-29T01:45:25.884Z,10.70
2022-11-29T01:47:55.284Z,10.50
2022-11-29T01:50:22.108Z,10.30
2022-11-29T01:52:48.663Z,10.73
2022-11-29T01:55:15.720Z,10.67
2022-11-29T01:57:42.890Z,10.70
2022-11-29T02:00:15.949Z,10.67
2022-11-29T02:02:55.834Z,10.40
2022-11-29T02:05:22.401Z,11.07
2022-11-29T02:07:51.826Z,10.20
2022-11-29T02:10:18.534Z,10.63
2022-11-29T02:12:54.617Z,10.30
2022-11-29T02:15:36.435Z,10.43
2022-11-29T02:18:27.658Z,11.60
2022-11-29T02:21:14.450Z,10.80
2022-11-29T02:23:53.099Z,10.43
2022-11-29T02:26:34.831Z,9.70
2022-11-29T02:29:38.796Z,10.90
2022-11-29T02:32:33.369Z,11.40
2022-11-29T02:35:37.400Z,11.00
2022-11-29T02:38:25.790Z,10.60
2022-11-29T02:41:26.603Z,10.00
2022-11-29T02:44:02.027Z,10.60
2022-11-29T02:46:42.194Z,10.20
2022-11-29T02:49:18.110Z,11.37
2022-11-29T02:51:47.821Z,10.63
2022-11-29T02:54:24.049Z,10.40
2022-11-29T02:57:00.429Z,10.27
2022-11-29T02:59:46.098Z,10.37
2022-11-29T03:02:50.374Z,10.80
2022-11-29T03:05:35.303Z,10.27
2022-11-29T03:08:18.126Z,9.93
2022-11-29T03:11:02.987Z,11.27
2022-11-29T03:13:59.936Z,9.50
2022-11-29T03:16:46.840Z,9.93
2022-11-29T03:19:39.191Z,9.30
2022-11-29T03:22:09.245Z,9.43
2022-11-29T03:24:41.321Z,9.93
2022-11-29T03:27:13.736Z,9.70
2022-11-29T03:29:55.791Z,9.37
2022-11-29T03:32:41.076Z,10.70
2022-11-29T03:35:24.632Z,9.63
2022-11-29T03:38:19.111Z,9.07
2022-11-29T03:40:57.781Z,10.43
2022-11-29T03:43:37.134Z,9.60
2022-11-29T03:46:08.280Z,10.13
2022-11-29T03:48:41.081Z,10.00
2022-11-29T03:51:23.797Z,10.17
2022-11-29T03:54:03.273Z,9.67
2022-11-29T03:56:38.734Z,9.23
2022-11-29T03:59:23.576Z,10.87
2022-11-29T04:02:18.111Z,12.23
2022-11-29T04:05:11.860Z,10.07
2022-11-29T04:08:01.009Z,9.67
2022-11-29T04:10:43.933Z,10.40
2022-11-29T04:13:29.324Z,11.00
2022-11-29T04:16:25.857Z,9.60
2022-11-29T04:19:20.583Z,9.63
2022-11-29T04:21:59.226Z,9.30
2022-11-29T04:24:41.507Z,8.83
2022-11-29T04:27:11.017Z,9.83
2022-11-29T04:29:48.965Z,10.67
2022-11-29T04:33:03.253Z,10.90
2022-11-29T04:35:52.003Z,13.30
2022-11-29T04:38:50.479Z,10.83
2022-11-29T04:41:41.054Z,11.27
2022-11-29T04:44:16.194Z,9.57
2022-11-29T04:46:51.931Z,10.10
2022-11-29T04:49:49.272Z,9.57
2022-11-29T04:52:27.862Z,10.33
2022-11-29T04:55:03.029Z,9.37
2022-11-29T04:57:41.815Z,9.50
2022-11-29T05:00:19.091Z,9.07
2022-11-29T05:02:55.672Z,9.60
2022-11-29T05:05:47.059Z,10.63
2022-11-29T05:08:38.341Z,10.87
2022-11-29T05:11:32.118Z,9.27
2022-11-29T05:14:20.276Z,10.00
2022-11-29T05:16:46.783Z,11.20
2022-11-29T05:19:31.353Z,9.30
2022-11-29T05:22:22.069Z,10.00
2022-11-29T05:24:55.054Z,9.60
2022-11-29T05:27:39.283Z,8.47
2022-11-29T05:30:11.994Z,9.00
2022-11-29T05:33:04.560Z,10.57
2022-11-29T05:35:47.741Z,10.13
2022-11-29T05:38:44.211Z,10.60
2022-11-29T05:41:35.494Z,12.20
2022-11-29T05:44:28.506Z,11.90
2022-11-29T05:46:57.529Z,11.87
2022-11-29T05:49:37.594Z,11.60
2022-11-29T05:52:24.575Z,12.33
2022-11-29T05:55:22.006Z,10.87
2022-11-29T05:58:13.512Z,10.80
2022-11-29T06:01:20.574Z,10.80
2022-11-29T06:04:08.024Z,10.93
2022-11-29T06:06:45.732Z,10.37
2022-11-29T06:09:19.082Z,9.70
2022-11-29T06:11:47.966Z,9.13
2022-11-29T06:14:49.893Z,9.10
2022-11-29T06:17:48.716Z,10.57
2022-11-29T06:20:39.327Z,11.37
2022-11-29T06:23:43.189Z,9.30
2022-11-29T06:26:13.146Z,10.07
2022-11-29T06:28:51.784Z,11.57
2022-11-29T06:31:28.879Z,11.20
2022-11-29T06:34:17.745Z,10.20
2022-11-29T06:36:53.284Z,11.33
2022-11-29T06:39:20.100Z,10.23
2022-11-29T06:41:47.171Z,9.27
2022-11-29T06:44:14.058Z,9.17
2022-11-29T06:46:50.834Z,10.90
2022-11-29T06:49:23.133Z,9.23
2022-11-29T06:52:08.418Z,9.10
2022-11-29T06:54:59.945Z,10.00
2022-11-29T06:58:04.921Z,10.80
2022-11-29T07:00:43.221Z,10.50
2022-11-29T07:03:40.572Z,10.10
2022-11-29T07:06:27.495Z,9.80
2022-11-29T07:08:57.262Z,10.17
2022-11-29T07:11:24.130Z,8.63
2022-11-29T07:13:50.956Z,8.50
2022-11-29T07:16:32.016Z,8.73
2022-11-29T07:19:13.917Z,8.20
2022-11-29T07:22:14.573Z,8.40
2022-11-29T07:25:01.436Z,10.17
2022-11-29T07:28:11.019Z,8.70
2022-11-29T07:30:43.821Z,9.40
2022-11-29T07:33:32.188Z,8.67
2022-11-29T07:36:05.564Z,7.97
2022-11-29T07:38:38.097Z,8.53
2022-11-29T07:41:12.322Z,8.33
2022-11-29T07:43:47.488Z,7.50
2022-11-29T07:46:13.990Z,8.67
2022-11-29T07:48:40.575Z,7.63
2022-11-29T07:51:07.041Z,7.50
2022-11-29T07:53:37.933Z,8.27
2022-11-29T07:56:04.843Z,8.93
2022-11-29T07:58:34.247Z,8.47
2022-11-29T08:01:00.902Z,10.17
2022-11-29T08:03:27.949Z,10.30
2022-11-29T08:05:54.844Z,11.13
2022-11-29T08:08:21.424Z,15.80
2022-11-29T08:10:47.911Z,13.63
2022-11-29T08:13:14.711Z,11.53
2022-11-29T08:15:48.731Z,12.00
2022-11-29T08:18:16.173Z,10.60
2022-11-29T08:20:42.852Z,10.13
2022-11-29T08:23:11.274Z,9.50
2022-11-29T08:25:38.059Z,10.00
2022-11-29T08:28:05.104Z,9.17
2022-11-29T08:30:31.790Z,10.23
2022-11-29T08:32:58.418Z,8.87
2022-11-29T08:35:25.019Z,9.33
2022-11-29T08:37:51.798Z,8.77
2022-11-29T08:40:18.487Z,9.03
2022-11-29T08:42:45.257Z,10.07
2022-11-29T08:45:11.769Z,10.00
2022-11-29T08:47:38.945Z,9.27
2022-11-29T08:50:12.182Z,9.53
2022-11-29T08:52:59.292Z,9.33
2022-11-29T08:55:28.321Z,9.37
2022-11-29T08:58:01.630Z,9.77
2022-11-29T09:00:28.146Z,9.43
2022-11-29T09:02:54.693Z,10.03
2022-11-29T09:05:21.238Z,8.30
2022-11-29T09:07:48.036Z,8.17
2022-11-29T09:10:14.562Z,8.50
2022-11-29T09:12:41.354Z,7.30
2022-11-29T09:15:11.302Z,7.20
2022-11-29T09:17:37.860Z,7.17
2022-11-29T09:20:05.578Z,7.93
2022-11-29T09:22:32.095Z,7.93
2022-11-29T09:24:58.617Z,7.50
2022-11-29T09:27:25.309Z,7.83
2022-11-29T09:29:51.889Z,8.83
2022-11-29T09:32:18.607Z,8.47
2022-11-29T09:34:45.468Z,8.30
2022-11-29T09:37:12.342Z,8.47
2022-11-29T09:39:40.260Z,8.20
2022-11-29T09:42:12.868Z,7.97
2022-11-29T09:44:59.385Z,6.33
2022-11-29T09:47:49.319Z,6.03
2022-11-29T09:50:31.085Z,6.50
2022-11-29T09:53:12.817Z,6.93
2022-11-29T09:55:56.035Z,5.93
2022-11-29T09:58:26.491Z,6.50
2022-11-29T10:00:58.399Z,6.10
2022-11-29T10:03:38.653Z,4.73
2022-11-29T10:06:12.000Z,5.60
2022-11-29T10:08:43.689Z,5.13
2022-11-29T10:11:13.052Z,6.10
2022-11-29T10:13:45.757Z,7.63
2022-11-29T10:16:19.225Z,5.80
2022-11-29T10:18:59.523Z,5.53
2022-11-29T10:21:30.017Z,5.17
2022-11-29T10:24:00.129Z,5.30
2022-11-29T10:26:32.005Z,6.40
2022-11-29T10:29:01.673Z,5.80
2022-11-29T10:31:32.613Z,5.60
2022-11-29T10:34:01.991Z,7.07
2022-11-29T10:36:36.700Z,5.50
2022-11-29T10:39:11.470Z,6.37
2022-11-29T10:41:40.780Z,4.93
2022-11-29T10:44:07.426Z,5.27
2022-11-29T10:46:35.436Z,5.73
2022-11-29T10:49:05.696Z,5.30
2022-11-29T10:51:32.958Z,5.60
2022-11-29T10:54:31.797Z,5.13
2022-11-29T10:57:00.464Z,4.80
2022-11-29T10:59:29.624Z,5.30
2022-11-29T11:01:57.494Z,5.50
2022-11-29T11:04:35.801Z,5.47
2022-11-29T11:07:04.808Z,5.80
2022-11-29T11:09:38.132Z,5.27
2022-11-29T11:12:08.629Z,5.97
2022-11-29T11:14:37.656Z,6.53
2022-11-29T11:17:32.855Z,5.90
2022-11-29T11:20:04.531Z,6.50
2022-11-29T11:22:33.097Z,6.90
2022-11-29T11:25:27.629Z,7.27
2022-11-29T11:27:54.485Z,7.27
2022-11-29T11:30:27.486Z,9.83
2022-11-29T11:33:22.488Z,7.07
2022-11-29T11:36:19.565Z,18.73
2022-11-29T11:39:10.017Z,10.57
2022-11-29T11:41:57.093Z,9.00
2022-11-29T11:44:46.586Z,9.03
2022-11-29T11:47:15.854Z,7.80
2022-11-29T11:50:00.294Z,8.03
2022-11-29T11:52:32.214Z,8.20
2022-11-29T11:55:05.011Z,9.00
2022-11-29T11:57:31.675Z,8.40
2022-11-29T12:00:04.980Z,8.90
2022-11-29T12:02:37.462Z,7.83
2022-11-29T12:05:07.059Z,8.10
2022-11-29T12:08:07.484Z,8.37
2022-11-29T12:10:31.776Z,8.70
2022-11-29T12:12:59.457Z,8.87
2022-11-29T12:15:29.737Z,7.97
2022-11-29T12:18:13.689Z,8.37
2022-11-29T12:21:00.739Z,9.40
2022-11-29T12:23:40.075Z,8.97
2022-11-29T12:26:13.727Z,7.90
2022-11-29T12:28:46.390Z,8.70
2022-11-29T12:31:12.827Z,8.30
2022-11-29T12:33:49.314Z,8.97
2022-11-29T12:36:24.338Z,9.47
2022-11-29T12:39:09.972Z,8.33
2022-11-29T12:42:05.896Z,8.43
2022-11-29T12:44:35.116Z,7.87
2022-11-29T12:47:35.168Z,9.30
2022-11-29T12:50:08.184Z,8.23
2022-11-29T12:52:43.923Z,10.17
2022-11-29T12:55:20.488Z,10.20
2022-11-29T12:57:53.096Z,9.80
2022-11-29T13:00:20.163Z,9.00
2022-11-29T13:02:57.671Z,9.10
2022-11-29T13:06:01.679Z,9.00
2022-11-29T13:08:34.274Z,8.23
2022-11-29T13:11:24.157Z,8.50
2022-11-29T13:17:05.364Z,7.80
2022-11-29T13:19:46.113Z,7.70
2022-11-29T13:22:19.989Z,8.90
2022-11-29T13:24:53.269Z,7.80
2022-11-29T13:27:25.391Z,9.13
2022-11-29T13:29:51.985Z,8.50
2022-11-29T13:32:31.686Z,7.40
2022-11-29T13:35:06.465Z,8.80
2022-11-29T13:37:40.993Z,9.37
2022-11-29T13:40:29.888Z,10.53
2022-11-29T13:43:20.055Z,10.13
2022-11-29T13:45:56.157Z,11.30
2022-11-29T13:48:28.504Z,12.23
2022-11-29T13:50:58.443Z,12.37
2022-11-29T13:53:33.813Z,11.77
2022-11-29T13:56:01.680Z,11.80
2022-11-29T13:58:28.155Z,12.37
2022-11-29T14:00:55.243Z,11.90
2022-11-29T14:03:29.129Z,12.03
2022-11-29T14:06:01.760Z,11.93
2022-11-29T14:09:02.009Z,22.40
2022-11-29T14:11:24.287Z,13.80
2022-11-29T14:13:54.554Z,18.77
2022-11-29T14:16:31.280Z,14.60
2022-11-29T14:19:10.025Z,13.97
2022-11-29T14:22:07.629Z,42.83
2022-11-29T14:24:36.988Z,37.57
2022-11-29T14:27:06.287Z,16.90
2022-11-29T14:29:50.834Z,16.80
2022-11-29T14:32:46.314Z,16.20
2022-11-29T14:35:15.080Z,19.40
2022-11-29T14:37:50.410Z,15.30
2022-11-29T14:40:44.289Z,14.47
2022-11-29T14:43:31.598Z,18.50
2022-11-29T14:46:16.859Z,15.10
2022-11-29T14:48:55.706Z,13.37
2022-11-29T14:51:24.282Z,30.00
2022-11-29T14:54:13.669Z,16.50
2022-11-29T14:56:45.125Z,15.63
2022-11-29T14:59:39.391Z,14.00
2022-11-29T15:02:26.007Z,14.07
2022-11-29T15:04:55.947Z,14.23
2022-11-29T15:07:29.650Z,16.90
2022-11-29T15:10:00.232Z,17.80
2022-11-29T15:12:37.260Z,15.77
2022-11-29T15:15:15.924Z,16.07
2022-11-29T15:17:45.479Z,17.83
2022-11-29T15:20:25.711Z,31.17
2022-11-29T15:22:54.856Z,14.57
2022-11-29T15:25:24.118Z,16.87
2022-11-29T15:27:52.482Z,20.67
2022-11-29T15:30:35.371Z,14.80
2022-11-29T15:33:22.828Z,44.50
2022-11-29T15:35:55.016Z,19.53
2022-11-29T15:38:23.621Z,22.90
2022-11-29T15:40:54.711Z,20.50
2022-11-29T15:43:32.580Z,16.17
2022-11-29T15:45:59.602Z,25.03
2022-11-29T15:48:28.327Z,19.60
2022-11-29T15:50:58.511Z,19.20
2022-11-29T15:53:33.814Z,17.20
2022-11-29T15:56:02.293Z,16.13
2022-11-29T15:58:31.471Z,18.43
2022-11-29T16:00:59.571Z,19.60
2022-11-29T16:03:32.769Z,22.87
2022-11-29T16:06:08.802Z,18.93
2022-11-29T16:08:40.062Z,19.17
2022-11-29T16:11:07.028Z,17.47
2022-11-29T16:13:37.442Z,17.73
2022-11-29T16:16:07.467Z,17.77
2022-11-29T16:18:34.231Z,21.17
2022-11-29T16:21:05.910Z,16.50
2022-11-29T16:23:43.031Z,17.93
2022-11-29T16:26:23.065Z,18.60
2022-11-29T16:28:54.022Z,18.33
2022-11-29T16:31:22.394Z,18.50
2022-11-29T16:33:50.993Z,16.93
2022-11-29T16:36:23.448Z,15.60
2022-11-29T16:38:55.295Z,15.63
2022-11-29T16:41:25.502Z,16.23
2022-11-29T16:43:55.160Z,15.20
2022-11-29T16:46:21.643Z,15.80
2022-11-29T16:48:49.533Z,14.70
2022-11-29T16:51:23.961Z,13.43
2022-11-29T16:53:52.159Z,13.70
2022-11-29T16:56:25.499Z,15.80
2022-11-29T16:59:24.952Z,18.37
2022-11-29T17:01:41.406Z,14.73
2022-11-29T17:04:08.778Z,18.53
2022-11-29T17:06:35.919Z,16.87
2022-11-29T17:09:02.667Z,16.53
2022-11-29T17:11:29.105Z,18.60
2022-11-29T17:13:55.674Z,17.47
2022-11-29T17:16:24.237Z,19.10
2022-11-29T17:18:52.719Z,18.57
2022-11-29T17:21:26.793Z,16.73
2022-11-29T17:23:54.044Z,17.80
2022-11-29T17:26:21.308Z,17.40
2022-11-29T17:28:49.548Z,17.63
2022-11-29T17:31:18.462Z,18.37
2022-11-29T17:33:45.054Z,16.53
2022-11-29T17:36:15.313Z,18.03
2022-11-29T17:38:43.039Z,16.33
2022-11-29T17:41:14.710Z,16.47
2022-11-29T17:43:41.641Z,16.40
2022-11-29T17:46:26.275Z,16.50
2022-11-29T17:48:53.291Z,17.33
2022-11-29T17:51:50.467Z,17.80
2022-11-29T17:54:09.045Z,17.57
2022-11-29T17:56:35.569Z,18.27
2022-11-29T17:59:03.430Z,17.13
2022-11-29T18:01:32.457Z,18.30
2022-11-29T18:04:01.231Z,17.07
2022-11-29T18:06:34.404Z,18.50
2022-11-29T18:09:01.973Z,17.40
2022-11-29T18:11:41.598Z,16.70
2022-11-29T18:14:12.663Z,16.50
2022-11-29T18:16:39.635Z,16.50
2022-11-29T18:19:08.792Z,17.60
2022-11-29T18:21:35.852Z,19.10
2022-11-29T18:24:03.881Z,18.57
2022-11-29T18:26:31.377Z,18.03
2022-11-29T18:28:58.517Z,17.93
2022-11-29T18:31:29.891Z,18.60
2022-11-29T18:33:59.172Z,16.90
2022-11-29T18:36:28.164Z,17.40
2022-11-29T18:38:59.643Z,18.70
2022-11-29T18:41:28.294Z,19.77
2022-11-29T18:44:06.290Z,19.30
2022-11-29T18:46:33.449Z,20.70
2022-11-29T18:49:03.495Z,18.50
2022-11-29T18:51:30.874Z,19.47
2022-11-29T18:53:58.476Z,18.93
2022-11-29T18:56:26.861Z,18.63
2022-11-29T18:59:10.270Z,17.77
2022-11-29T19:01:41.039Z,19.73
2022-11-29T19:04:10.219Z,19.03
2022-11-29T19:06:40.028Z,18.73
2022-11-29T19:09:09.676Z,19.13
2022-11-29T19:11:36.255Z,19.83
2022-11-29T19:14:04.911Z,19.30
2022-11-29T19:16:33.963Z,18.43
2022-11-29T19:19:01.235Z,19.60
2022-11-29T19:21:29.923Z,18.33
2022-11-29T19:23:58.282Z,18.40
2022-11-29T19:26:26.827Z,19.80
2022-11-29T19:28:54.305Z,18.40
2022-11-29T19:31:25.050Z,19.53
2022-11-29T19:33:52.756Z,20.13
2022-11-29T19:36:23.853Z,18.83
2022-11-29T19:38:53.685Z,17.37
2022-11-29T19:41:25.075Z,19.33
2022-11-29T19:43:51.977Z,18.90
2022-11-29T19:46:20.866Z,20.50
2022-11-29T19:48:47.946Z,19.70
2022-11-29T19:51:18.964Z,20.73
2022-11-29T19:53:46.233Z,19.13
2022-11-29T19:56:14.980Z,18.77
2022-11-29T19:58:42.366Z,19.90
2022-11-29T20:01:17.565Z,20.40
2022-11-29T20:03:45.117Z,18.23
2022-11-29T20:06:13.641Z,19.63
2022-11-29T20:08:40.934Z,21.30
2022-11-29T20:11:10.555Z,18.50
2022-11-29T20:13:37.957Z,18.27
2022-11-29T20:16:06.507Z,20.27
2022-11-29T20:18:33.777Z,22.43
2022-11-29T20:21:08.971Z,19.57
2022-11-29T20:23:35.807Z,19.20
2022-11-29T20:26:02.382Z,19.20
2022-11-29T20:28:28.944Z,20.70
2022-11-29T20:30:55.660Z,20.27
2022-11-29T20:33:24.295Z,19.63
2022-11-29T20:36:03.173Z,20.40
2022-11-29T20:38:35.232Z,19.10
2022-11-29T20:41:13.504Z,17.97
2022-11-29T20:44:06.437Z,18.30
2022-11-29T20:46:33.141Z,21.10
2022-11-29T20:49:05.980Z,20.93
2022-11-29T20:51:41.182Z,19.83
2022-11-29T20:54:10.616Z,20.30
2022-11-29T20:56:37.166Z,17.60
2022-11-29T20:59:03.673Z,19.80
2022-11-29T21:01:30.151Z,20.30
2022-11-29T21:03:56.774Z,19.30
2022-11-29T21:06:23.521Z,20.40
2022-11-29T21:08:51.193Z,18.83
2022-11-29T21:11:18.036Z,18.67
2022-11-29T21:13:44.860Z,20.30
2022-11-29T21:16:12.906Z,19.20
2022-11-29T21:18:39.816Z,19.40
2022-11-29T21:21:14.546Z,18.43
2022-11-29T21:23:57.341Z,19.27
2022-11-29T21:26:31.811Z,19.57
2022-11-29T21:29:25.016Z,19.60
2022-11-29T21:31:53.486Z,18.23
2022-11-29T21:34:20.951Z,19.57
2022-11-29T21:36:56.668Z,19.67
2022-11-29T21:39:26.490Z,21.10
2022-11-29T21:41:52.924Z,18.50
2022-11-29T21:44:19.545Z,20.77
2022-11-29T21:46:46.125Z,19.37
2022-11-29T21:49:12.742Z,20.83
2022-11-29T21:51:39.245Z,20.80
2022-11-29T21:54:05.700Z,20.73
2022-11-29T21:56:32.248Z,18.93
2022-11-29T21:58:58.728Z,19.60
2022-11-29T22:01:29.506Z,20.50
2022-11-29T22:03:56.387Z,19.40
2022-11-29T22:06:24.459Z,19.27
2022-11-29T22:08:50.990Z,19.40
2022-11-29T22:11:31.950Z,18.43
2022-11-29T22:14:18.661Z,17.43
2022-11-29T22:17:03.286Z,20.67
2022-11-29T22:19:34.863Z,22.50
2022-11-29T22:22:03.527Z,20.33
2022-11-29T22:24:32.546Z,17.80
2022-11-29T22:26:59.161Z,19.37
2022-11-29T22:29:25.850Z,19.80
2022-11-29T22:31:53.982Z,17.60
2022-11-29T22:34:21.120Z,20.50
2022-11-29T22:36:48.244Z,20.50
2022-11-29T22:39:14.991Z,19.43
2022-11-29T22:41:41.781Z,21.00
2022-11-29T22:44:08.248Z,19.63
2022-11-29T22:46:37.973Z,20.13
2022-11-29T22:49:04.486Z,19.93
2022-11-29T22:51:33.389Z,19.43
2022-11-29T22:54:02.138Z,20.50
2022-11-29T22:56:31.693Z,19.17
2022-11-29T22:58:58.398Z,20.00
2022-11-29T23:01:27.492Z,21.10
2022-11-29T23:03:56.984Z,21.47
2022-11-29T23:06:30.623Z,20.93
2022-11-29T23:08:58.972Z,18.77
2022-11-29T23:11:27.473Z,20.10
2022-11-29T23:13:54.449Z,20.10
2022-11-29T23:16:26.625Z,22.70
2022-11-29T23:18:55.039Z,19.90
2022-11-29T23:21:26.738Z,20.03
2022-11-29T23:23:56.572Z,20.10
2022-11-29T23:26:25.861Z,19.60
2022-11-29T23:28:53.836Z,18.00
2022-11-29T23:31:21.511Z,18.97
2022-11-29T23:33:48.371Z,19.40
2022-11-29T23:36:15.223Z,19.43
2022-11-29T23:38:42.012Z,20.17
2022-11-29T23:41:09.878Z,18.53
2022-11-29T23:43:38.073Z,19.33
2022-11-29T23:46:18.523Z,18.80
2022-11-29T23:48:45.686Z,19.50
2022-11-29T23:51:12.947Z,18.00
2022-11-29T23:53:40.336Z,18.70
2022-11-29T23:56:10.410Z,18.57
2022-11-29T23:58:38.070Z,18.90
